sensor_id;sensor_type;location;lat;lon;timestamp;P1;durP1;ratioP1;P2;durP2;ratioP2
19436;SDS011;9854;50.968;4.168;2023-06-22T00:00:27;7.22;;;4.70;;
19436;SDS011;9854;50.968;4.168;2023-06-22T00:02:53;11.20;;;4.35;;
19436;SDS011;9854;50.968;4.168;2023-06-22T00:05:18;5.43;;;4.63;;
19436;SDS011;9854;50.968;4.168;2023-06-22T00:07:44;6.07;;;4.65;;
19436;SDS011;9854;50.968;4.168;2023-06-22T00:10:09;7.88;;;4.60;;
19436;SDS011;9854;50.968;4.168;2023-06-22T00:12:35;5.70;;;4.43;;
19436;SDS011;9854;50.968;4.168;2023-06-22T00:15:00;9.82;;;4.57;;
19436;SDS011;9854;50.968;4.168;2023-06-22T00:17:26;5.57;;;4.30;;
19436;SDS011;9854;50.968;4.168;2023-06-22T00:19:52;9.30;;;5.18;;
19436;SDS011;9854;50.968;4.168;2023-06-22T00:22:20;6.82;;;4.82;;
19436;SDS011;9854;50.968;4.168;2023-06-22T00:24:53;8.05;;;4.40;;
19436;SDS011;9854;50.968;4.168;2023-06-22T00:27:20;5.13;;;4.22;;
19436;SDS011;9854;50.968;4.168;2023-06-22T00:29:46;6.68;;;5.07;;
19436;SDS011;9854;50.968;4.168;2023-06-22T00:32:11;9.50;;;5.90;;
19436;SDS011;9854;50.968;4.168;2023-06-22T00:34:37;6.25;;;5.72;;
19436;SDS011;9854;50.968;4.168;2023-06-22T00:37:02;9.35;;;5.38;;
19436;SDS011;9854;50.968;4.168;2023-06-22T00:39:28;5.90;;;4.32;;
19436;SDS011;9854;50.968;4.168;2023-06-22T00:41:54;6.50;;;4.65;;
19436;SDS011;9854;50.968;4.168;2023-06-22T00:44:20;7.53;;;4.53;;
19436;SDS011;9854;50.968;4.168;2023-06-22T00:46:46;10.45;;;5.18;;
19436;SDS011;9854;50.968;4.168;2023-06-22T00:49:11;6.80;;;5.38;;
19436;SDS011;9854;50.968;4.168;2023-06-22T00:51:37;7.78;;;4.93;;
19436;SDS011;9854;50.968;4.168;2023-06-22T00:54:04;6.78;;;5.00;;
19436;SDS011;9854;50.968;4.168;2023-06-22T00:56:31;7.93;;;5.20;;
19436;SDS011;9854;50.968;4.168;2023-06-22T00:58:58;5.43;;;4.70;;
19436;SDS011;9854;50.968;4.168;2023-06-22T01:01:24;6.82;;;5.15;;
19436;SDS011;9854;50.968;4.168;2023-06-22T01:03:50;9.48;;;5.35;;
19436;SDS011;9854;50.968;4.168;2023-06-22T01:06:18;6.40;;;5.10;;
19436;SDS011;9854;50.968;4.168;2023-06-22T01:08:53;5.50;;;4.95;;
19436;SDS011;9854;50.968;4.168;2023-06-22T01:11:36;8.15;;;5.47;;
19436;SDS011;9854;50.968;4.168;2023-06-22T01:14:10;9.50;;;6.28;;
19436;SDS011;9854;50.968;4.168;2023-06-22T01:16:41;7.15;;;6.10;;
19436;SDS011;9854;50.968;4.168;2023-06-22T01:19:29;9.20;;;6.22;;
19436;SDS011;9854;50.968;4.168;2023-06-22T01:22:22;7.15;;;5.95;;
19436;SDS011;9854;50.968;4.168;2023-06-22T01:30:17;8.07;;;5.63;;
19436;SDS011;9854;50.968;4.168;2023-06-22T01:32:44;9.82;;;5.95;;
19436;SDS011;9854;50.968;4.168;2023-06-22T01:35:10;7.95;;;5.60;;
19436;SDS011;9854;50.968;4.168;2023-06-22T01:37:38;7.40;;;6.00;;
19436;SDS011;9854;50.968;4.168;2023-06-22T01:40:04;9.23;;;6.15;;
19436;SDS011;9854;50.968;4.168;2023-06-22T01:42:32;13.27;;;5.93;;
19436;SDS011;9854;50.968;4.168;2023-06-22T01:45:00;14.88;;;6.80;;
19436;SDS011;9854;50.968;4.168;2023-06-22T01:47:26;7.50;;;6.65;;
19436;SDS011;9854;50.968;4.168;2023-06-22T01:49:52;7.88;;;6.07;;
19436;SDS011;9854;50.968;4.168;2023-06-22T01:52:18;9.75;;;6.55;;
19436;SDS011;9854;50.968;4.168;2023-06-22T01:54:46;6.63;;;5.97;;
19436;SDS011;9854;50.968;4.168;2023-06-22T01:57:12;13.18;;;7.20;;
19436;SDS011;9854;50.968;4.168;2023-06-22T02:02:24;8.15;;;7.13;;
19436;SDS011;9854;50.968;4.168;2023-06-22T02:04:56;8.00;;;7.20;;
19436;SDS011;9854;50.968;4.168;2023-06-22T02:07:26;7.93;;;7.10;;
19436;SDS011;9854;50.968;4.168;2023-06-22T02:09:57;8.38;;;6.68;;
19436;SDS011;9854;50.968;4.168;2023-06-22T02:12:25;7.15;;;6.45;;
19436;SDS011;9854;50.968;4.168;2023-06-22T02:14:52;7.30;;;6.60;;
19436;SDS011;9854;50.968;4.168;2023-06-22T02:17:18;11.07;;;6.43;;
19436;SDS011;9854;50.968;4.168;2023-06-22T02:19:44;9.07;;;6.63;;
19436;SDS011;9854;50.968;4.168;2023-06-22T02:22:10;10.35;;;6.68;;
19436;SDS011;9854;50.968;4.168;2023-06-22T02:24:37;11.10;;;6.75;;
19436;SDS011;9854;50.968;4.168;2023-06-22T02:27:03;7.60;;;6.90;;
19436;SDS011;9854;50.968;4.168;2023-06-22T02:29:31;7.57;;;6.45;;
19436;SDS011;9854;50.968;4.168;2023-06-22T02:31:56;11.70;;;7.65;;
19436;SDS011;9854;50.968;4.168;2023-06-22T02:34:22;11.38;;;7.53;;
19436;SDS011;9854;50.968;4.168;2023-06-22T02:36:48;11.07;;;7.80;;
19436;SDS011;9854;50.968;4.168;2023-06-22T02:39:18;12.07;;;8.18;;
19436;SDS011;9854;50.968;4.168;2023-06-22T02:41:49;11.60;;;8.02;;
19436;SDS011;9854;50.968;4.168;2023-06-22T02:44:15;9.27;;;8.20;;
19436;SDS011;9854;50.968;4.168;2023-06-22T02:46:42;11.68;;;8.52;;
19436;SDS011;9854;50.968;4.168;2023-06-22T02:49:07;10.57;;;8.15;;
19436;SDS011;9854;50.968;4.168;2023-06-22T02:51:33;14.65;;;8.50;;
19436;SDS011;9854;50.968;4.168;2023-06-22T02:53:59;13.38;;;8.43;;
19436;SDS011;9854;50.968;4.168;2023-06-22T02:56:25;16.38;;;9.38;;
19436;SDS011;9854;50.968;4.168;2023-06-22T02:58:51;11.20;;;8.55;;
19436;SDS011;9854;50.968;4.168;2023-06-22T03:01:17;9.63;;;8.27;;
19436;SDS011;9854;50.968;4.168;2023-06-22T03:03:49;9.70;;;8.70;;
19436;SDS011;9854;50.968;4.168;2023-06-22T03:06:15;12.50;;;8.43;;
19436;SDS011;9854;50.968;4.168;2023-06-22T03:08:40;14.63;;;8.75;;
19436;SDS011;9854;50.968;4.168;2023-06-22T03:11:09;19.00;;;8.90;;
19436;SDS011;9854;50.968;4.168;2023-06-22T03:13:34;10.38;;;9.05;;
19436;SDS011;9854;50.968;4.168;2023-06-22T03:16:00;10.10;;;7.47;;
19436;SDS011;9854;50.968;4.168;2023-06-22T03:18:26;13.15;;;8.07;;
19436;SDS011;9854;50.968;4.168;2023-06-22T03:20:52;17.30;;;8.27;;
19436;SDS011;9854;50.968;4.168;2023-06-22T03:23:17;13.07;;;7.82;;
19436;SDS011;9854;50.968;4.168;2023-06-22T03:25:43;10.38;;;7.68;;
19436;SDS011;9854;50.968;4.168;2023-06-22T03:28:12;10.40;;;7.80;;
19436;SDS011;9854;50.968;4.168;2023-06-22T03:30:37;10.05;;;7.63;;
19436;SDS011;9854;50.968;4.168;2023-06-22T03:33:03;14.43;;;7.82;;
19436;SDS011;9854;50.968;4.168;2023-06-22T03:35:28;12.95;;;7.63;;
19436;SDS011;9854;50.968;4.168;2023-06-22T03:37:54;11.75;;;8.05;;
19436;SDS011;9854;50.968;4.168;2023-06-22T03:40:20;9.73;;;7.45;;
19436;SDS011;9854;50.968;4.168;2023-06-22T03:42:46;9.70;;;7.60;;
19436;SDS011;9854;50.968;4.168;2023-06-22T03:45:11;12.10;;;7.63;;
19436;SDS011;9854;50.968;4.168;2023-06-22T03:47:37;12.45;;;8.55;;
19436;SDS011;9854;50.968;4.168;2023-06-22T03:50:03;12.15;;;8.50;;
19436;SDS011;9854;50.968;4.168;2023-06-22T03:52:29;13.23;;;8.60;;
19436;SDS011;9854;50.968;4.168;2023-06-22T03:54:55;12.50;;;8.00;;
19436;SDS011;9854;50.968;4.168;2023-06-22T03:57:21;13.45;;;8.55;;
19436;SDS011;9854;50.968;4.168;2023-06-22T03:59:46;11.07;;;7.00;;
19436;SDS011;9854;50.968;4.168;2023-06-22T04:02:12;10.13;;;8.20;;
19436;SDS011;9854;50.968;4.168;2023-06-22T04:04:38;10.15;;;7.72;;
19436;SDS011;9854;50.968;4.168;2023-06-22T04:07:04;10.30;;;7.82;;
19436;SDS011;9854;50.968;4.168;2023-06-22T04:09:30;10.60;;;7.38;;
19436;SDS011;9854;50.968;4.168;2023-06-22T04:11:56;10.00;;;8.15;;
19436;SDS011;9854;50.968;4.168;2023-06-22T04:14:21;9.63;;;7.50;;
19436;SDS011;9854;50.968;4.168;2023-06-22T04:16:47;18.98;;;8.38;;
19436;SDS011;9854;50.968;4.168;2023-06-22T04:19:12;18.63;;;7.95;;
19436;SDS011;9854;50.968;4.168;2023-06-22T04:21:42;9.40;;;8.38;;
19436;SDS011;9854;50.968;4.168;2023-06-22T04:24:09;13.45;;;8.60;;
19436;SDS011;9854;50.968;4.168;2023-06-22T04:26:35;11.10;;;8.68;;
19436;SDS011;9854;50.968;4.168;2023-06-22T04:29:05;11.40;;;9.43;;
19436;SDS011;9854;50.968;4.168;2023-06-22T04:31:34;11.27;;;8.55;;
19436;SDS011;9854;50.968;4.168;2023-06-22T04:34:03;11.45;;;8.52;;
19436;SDS011;9854;50.968;4.168;2023-06-22T04:36:40;13.10;;;8.88;;
19436;SDS011;9854;50.968;4.168;2023-06-22T04:39:10;16.95;;;9.77;;
19436;SDS011;9854;50.968;4.168;2023-06-22T04:41:39;11.63;;;8.93;;
19436;SDS011;9854;50.968;4.168;2023-06-22T04:44:17;12.00;;;9.10;;
19436;SDS011;9854;50.968;4.168;2023-06-22T04:46:48;12.55;;;9.18;;
19436;SDS011;9854;50.968;4.168;2023-06-22T04:49:19;14.45;;;9.32;;
19436;SDS011;9854;50.968;4.168;2023-06-22T04:51:46;9.88;;;8.77;;
19436;SDS011;9854;50.968;4.168;2023-06-22T04:54:11;15.65;;;8.70;;
19436;SDS011;9854;50.968;4.168;2023-06-22T04:56:37;13.80;;;8.98;;
19436;SDS011;9854;50.968;4.168;2023-06-22T04:59:06;15.65;;;9.30;;
19436;SDS011;9854;50.968;4.168;2023-06-22T05:01:32;18.13;;;9.07;;
19436;SDS011;9854;50.968;4.168;2023-06-22T05:04:00;12.63;;;8.02;;
19436;SDS011;9854;50.968;4.168;2023-06-22T05:06:26;12.23;;;9.07;;
19436;SDS011;9854;50.968;4.168;2023-06-22T05:08:55;21.30;;;9.38;;
19436;SDS011;9854;50.968;4.168;2023-06-22T05:11:25;16.70;;;8.43;;
19436;SDS011;9854;50.968;4.168;2023-06-22T05:13:54;15.32;;;8.65;;
19436;SDS011;9854;50.968;4.168;2023-06-22T05:16:20;13.73;;;8.95;;
19436;SDS011;9854;50.968;4.168;2023-06-22T05:18:52;18.08;;;8.40;;
19436;SDS011;9854;50.968;4.168;2023-06-22T05:21:21;12.68;;;8.88;;
19436;SDS011;9854;50.968;4.168;2023-06-22T05:23:51;9.98;;;8.43;;
19436;SDS011;9854;50.968;4.168;2023-06-22T05:26:21;14.05;;;8.95;;
19436;SDS011;9854;50.968;4.168;2023-06-22T05:28:47;16.48;;;8.52;;
19436;SDS011;9854;50.968;4.168;2023-06-22T05:31:16;11.63;;;8.95;;
19436;SDS011;9854;50.968;4.168;2023-06-22T05:33:42;11.23;;;8.38;;
19436;SDS011;9854;50.968;4.168;2023-06-22T05:36:09;11.90;;;8.05;;
19436;SDS011;9854;50.968;4.168;2023-06-22T05:38:35;13.05;;;8.65;;
19436;SDS011;9854;50.968;4.168;2023-06-22T05:41:01;10.27;;;9.18;;
19436;SDS011;9854;50.968;4.168;2023-06-22T05:43:27;14.50;;;8.07;;
19436;SDS011;9854;50.968;4.168;2023-06-22T05:45:52;13.27;;;8.82;;
19436;SDS011;9854;50.968;4.168;2023-06-22T05:48:18;13.25;;;9.85;;
19436;SDS011;9854;50.968;4.168;2023-06-22T05:50:44;10.07;;;8.40;;
19436;SDS011;9854;50.968;4.168;2023-06-22T05:53:10;13.43;;;8.93;;
19436;SDS011;9854;50.968;4.168;2023-06-22T05:55:35;10.23;;;8.77;;
19436;SDS011;9854;50.968;4.168;2023-06-22T05:58:01;12.52;;;8.63;;
19436;SDS011;9854;50.968;4.168;2023-06-22T06:00:28;15.60;;;9.15;;
19436;SDS011;9854;50.968;4.168;2023-06-22T06:02:54;14.90;;;9.15;;
19436;SDS011;9854;50.968;4.168;2023-06-22T06:05:19;12.23;;;9.80;;
19436;SDS011;9854;50.968;4.168;2023-06-22T06:07:45;11.18;;;8.85;;
19436;SDS011;9854;50.968;4.168;2023-06-22T06:10:12;14.25;;;8.95;;
19436;SDS011;9854;50.968;4.168;2023-06-22T06:12:37;15.30;;;9.93;;
19436;SDS011;9854;50.968;4.168;2023-06-22T06:15:03;18.77;;;10.52;;
19436;SDS011;9854;50.968;4.168;2023-06-22T06:17:29;15.15;;;10.05;;
19436;SDS011;9854;50.968;4.168;2023-06-22T06:19:55;19.00;;;9.95;;
19436;SDS011;9854;50.968;4.168;2023-06-22T06:22:21;21.08;;;10.52;;
19436;SDS011;9854;50.968;4.168;2023-06-22T06:24:48;13.75;;;10.48;;
19436;SDS011;9854;50.968;4.168;2023-06-22T06:27:14;17.67;;;11.38;;
19436;SDS011;9854;50.968;4.168;2023-06-22T06:29:40;17.67;;;11.38;;
19436;SDS011;9854;50.968;4.168;2023-06-22T06:32:05;15.27;;;11.43;;
19436;SDS011;9854;50.968;4.168;2023-06-22T06:34:31;12.93;;;11.63;;
19436;SDS011;9854;50.968;4.168;2023-06-22T06:36:57;13.98;;;12.05;;
19436;SDS011;9854;50.968;4.168;2023-06-22T06:39:23;18.10;;;11.30;;
19436;SDS011;9854;50.968;4.168;2023-06-22T06:41:48;14.85;;;11.73;;
19436;SDS011;9854;50.968;4.168;2023-06-22T06:44:14;19.10;;;12.95;;
19436;SDS011;9854;50.968;4.168;2023-06-22T06:46:39;19.17;;;12.35;;
19436;SDS011;9854;50.968;4.168;2023-06-22T06:49:06;14.70;;;12.73;;
19436;SDS011;9854;50.968;4.168;2023-06-22T06:51:32;20.30;;;12.25;;
19436;SDS011;9854;50.968;4.168;2023-06-22T06:53:58;15.65;;;12.70;;
19436;SDS011;9854;50.968;4.168;2023-06-22T06:56:23;15.82;;;12.57;;
19436;SDS011;9854;50.968;4.168;2023-06-22T06:58:52;16.15;;;13.30;;
19436;SDS011;9854;50.968;4.168;2023-06-22T07:01:18;17.20;;;11.77;;
19436;SDS011;9854;50.968;4.168;2023-06-22T07:03:44;19.48;;;13.55;;
19436;SDS011;9854;50.968;4.168;2023-06-22T07:06:10;16.17;;;13.23;;
19436;SDS011;9854;50.968;4.168;2023-06-22T07:08:36;16.38;;;13.10;;
19436;SDS011;9854;50.968;4.168;2023-06-22T07:11:02;14.88;;;13.20;;
19436;SDS011;9854;50.968;4.168;2023-06-22T07:13:27;20.85;;;14.20;;
19436;SDS011;9854;50.968;4.168;2023-06-22T07:15:53;18.77;;;13.20;;
19436;SDS011;9854;50.968;4.168;2023-06-22T07:18:19;17.20;;;13.20;;
19436;SDS011;9854;50.968;4.168;2023-06-22T07:20:44;19.90;;;13.82;;
19436;SDS011;9854;50.968;4.168;2023-06-22T07:23:10;16.35;;;12.93;;
19436;SDS011;9854;50.968;4.168;2023-06-22T07:25:36;18.70;;;13.70;;
19436;SDS011;9854;50.968;4.168;2023-06-22T07:28:02;24.63;;;14.65;;
19436;SDS011;9854;50.968;4.168;2023-06-22T07:30:30;19.55;;;13.23;;
19436;SDS011;9854;50.968;4.168;2023-06-22T07:32:57;18.20;;;13.80;;
19436;SDS011;9854;50.968;4.168;2023-06-22T07:35:23;21.50;;;14.60;;
19436;SDS011;9854;50.968;4.168;2023-06-22T07:37:49;16.27;;;14.35;;
19436;SDS011;9854;50.968;4.168;2023-06-22T07:40:14;21.52;;;14.07;;
19436;SDS011;9854;50.968;4.168;2023-06-22T07:42:40;17.30;;;14.88;;
19436;SDS011;9854;50.968;4.168;2023-06-22T07:45:06;24.17;;;14.98;;
19436;SDS011;9854;50.968;4.168;2023-06-22T07:47:33;19.92;;;14.93;;
19436;SDS011;9854;50.968;4.168;2023-06-22T07:50:00;17.23;;;15.10;;
19436;SDS011;9854;50.968;4.168;2023-06-22T07:52:29;15.82;;;13.95;;
19436;SDS011;9854;50.968;4.168;2023-06-22T07:54:55;20.58;;;14.63;;
19436;SDS011;9854;50.968;4.168;2023-06-22T07:57:21;20.67;;;15.27;;
19436;SDS011;9854;50.968;4.168;2023-06-22T07:59:47;17.63;;;15.25;;
19436;SDS011;9854;50.968;4.168;2023-06-22T08:02:12;22.42;;;15.73;;
19436;SDS011;9854;50.968;4.168;2023-06-22T08:04:38;17.45;;;15.63;;
19436;SDS011;9854;50.968;4.168;2023-06-22T08:07:04;20.70;;;15.57;;
19436;SDS011;9854;50.968;4.168;2023-06-22T08:09:31;19.17;;;14.75;;
19436;SDS011;9854;50.968;4.168;2023-06-22T08:11:58;19.17;;;14.65;;
19436;SDS011;9854;50.968;4.168;2023-06-22T08:14:27;17.15;;;15.30;;
19436;SDS011;9854;50.968;4.168;2023-06-22T08:16:54;18.20;;;14.15;;
19436;SDS011;9854;50.968;4.168;2023-06-22T08:19:20;15.80;;;14.15;;
19436;SDS011;9854;50.968;4.168;2023-06-22T08:21:46;18.50;;;14.02;;
19436;SDS011;9854;50.968;4.168;2023-06-22T08:24:11;18.50;;;13.43;;
19436;SDS011;9854;50.968;4.168;2023-06-22T08:26:37;22.55;;;13.77;;
19436;SDS011;9854;50.968;4.168;2023-06-22T08:29:03;20.27;;;13.60;;
19436;SDS011;9854;50.968;4.168;2023-06-22T08:31:30;14.85;;;12.20;;
19436;SDS011;9854;50.968;4.168;2023-06-22T08:33:59;18.10;;;13.25;;
19436;SDS011;9854;50.968;4.168;2023-06-22T08:36:25;14.07;;;12.05;;
19436;SDS011;9854;50.968;4.168;2023-06-22T08:38:54;22.13;;;12.02;;
19436;SDS011;9854;50.968;4.168;2023-06-22T08:41:26;14.60;;;10.98;;
19436;SDS011;9854;50.968;4.168;2023-06-22T08:43:52;10.80;;;9.48;;
19436;SDS011;9854;50.968;4.168;2023-06-22T08:46:18;15.32;;;10.85;;
19436;SDS011;9854;50.968;4.168;2023-06-22T08:48:48;15.10;;;10.30;;
19436;SDS011;9854;50.968;4.168;2023-06-22T08:51:14;12.98;;;10.82;;
19436;SDS011;9854;50.968;4.168;2023-06-22T08:53:39;15.30;;;11.20;;
19436;SDS011;9854;50.968;4.168;2023-06-22T08:56:05;16.42;;;10.68;;
19436;SDS011;9854;50.968;4.168;2023-06-22T08:58:31;16.20;;;11.70;;
19436;SDS011;9854;50.968;4.168;2023-06-22T09:00:56;13.98;;;11.18;;
19436;SDS011;9854;50.968;4.168;2023-06-22T09:03:26;17.58;;;11.18;;
19436;SDS011;9854;50.968;4.168;2023-06-22T09:05:52;13.77;;;10.30;;
19436;SDS011;9854;50.968;4.168;2023-06-22T09:08:17;12.57;;;10.10;;
19436;SDS011;9854;50.968;4.168;2023-06-22T09:10:43;13.30;;;10.45;;
19436;SDS011;9854;50.968;4.168;2023-06-22T09:13:09;12.45;;;9.82;;
19436;SDS011;9854;50.968;4.168;2023-06-22T09:15:34;13.55;;;11.10;;
19436;SDS011;9854;50.968;4.168;2023-06-22T09:18:00;13.70;;;10.68;;
19436;SDS011;9854;50.968;4.168;2023-06-22T09:20:26;13.32;;;10.07;;
19436;SDS011;9854;50.968;4.168;2023-06-22T09:22:51;16.88;;;10.90;;
19436;SDS011;9854;50.968;4.168;2023-06-22T09:25:17;11.77;;;10.13;;
19436;SDS011;9854;50.968;4.168;2023-06-22T09:27:45;17.80;;;11.65;;
19436;SDS011;9854;50.968;4.168;2023-06-22T09:30:11;15.80;;;10.75;;
19436;SDS011;9854;50.968;4.168;2023-06-22T09:32:37;15.60;;;10.98;;
19436;SDS011;9854;50.968;4.168;2023-06-22T09:35:04;15.32;;;11.15;;
19436;SDS011;9854;50.968;4.168;2023-06-22T09:37:34;15.95;;;11.35;;
19436;SDS011;9854;50.968;4.168;2023-06-22T09:40:00;15.50;;;9.50;;
19436;SDS011;9854;50.968;4.168;2023-06-22T09:42:26;15.73;;;10.82;;
19436;SDS011;9854;50.968;4.168;2023-06-22T09:44:52;17.30;;;11.82;;
19436;SDS011;9854;50.968;4.168;2023-06-22T09:47:17;17.88;;;10.82;;
19436;SDS011;9854;50.968;4.168;2023-06-22T09:49:43;17.73;;;11.60;;
19436;SDS011;9854;50.968;4.168;2023-06-22T09:52:08;12.50;;;10.85;;
19436;SDS011;9854;50.968;4.168;2023-06-22T09:54:36;20.73;;;12.40;;
19436;SDS011;9854;50.968;4.168;2023-06-22T09:57:01;17.48;;;11.95;;
19436;SDS011;9854;50.968;4.168;2023-06-22T09:59:27;17.63;;;11.77;;
19436;SDS011;9854;50.968;4.168;2023-06-22T10:01:53;17.70;;;12.65;;
19436;SDS011;9854;50.968;4.168;2023-06-22T10:04:18;14.80;;;10.73;;
19436;SDS011;9854;50.968;4.168;2023-06-22T10:06:44;15.55;;;11.98;;
19436;SDS011;9854;50.968;4.168;2023-06-22T10:09:10;23.60;;;13.20;;
19436;SDS011;9854;50.968;4.168;2023-06-22T10:11:35;18.10;;;13.70;;
19436;SDS011;9854;50.968;4.168;2023-06-22T10:14:02;20.42;;;14.00;;
19436;SDS011;9854;50.968;4.168;2023-06-22T10:16:32;22.02;;;14.25;;
19436;SDS011;9854;50.968;4.168;2023-06-22T10:19:00;27.70;;;15.30;;
19436;SDS011;9854;50.968;4.168;2023-06-22T10:21:26;23.67;;;15.13;;
19436;SDS011;9854;50.968;4.168;2023-06-22T10:23:53;19.23;;;14.95;;
19436;SDS011;9854;50.968;4.168;2023-06-22T10:26:19;29.33;;;15.93;;
19436;SDS011;9854;50.968;4.168;2023-06-22T10:28:44;18.98;;;15.77;;
19436;SDS011;9854;50.968;4.168;2023-06-22T10:31:10;22.08;;;16.27;;
19436;SDS011;9854;50.968;4.168;2023-06-22T10:33:36;22.63;;;16.08;;
19436;SDS011;9854;50.968;4.168;2023-06-22T10:36:01;23.55;;;17.33;;
19436;SDS011;9854;50.968;4.168;2023-06-22T10:38:27;20.10;;;15.90;;
19436;SDS011;9854;50.968;4.168;2023-06-22T10:40:53;22.23;;;16.90;;
19436;SDS011;9854;50.968;4.168;2023-06-22T10:43:18;26.38;;;18.00;;
19436;SDS011;9854;50.968;4.168;2023-06-22T10:45:44;22.45;;;16.88;;
19436;SDS011;9854;50.968;4.168;2023-06-22T10:48:10;20.98;;;16.27;;
19436;SDS011;9854;50.968;4.168;2023-06-22T10:50:36;27.45;;;17.75;;
19436;SDS011;9854;50.968;4.168;2023-06-22T10:53:01;19.90;;;15.95;;
19436;SDS011;9854;50.968;4.168;2023-06-22T10:55:27;21.45;;;17.02;;
19436;SDS011;9854;50.968;4.168;2023-06-22T10:57:52;18.00;;;16.15;;
19436;SDS011;9854;50.968;4.168;2023-06-22T11:00:18;19.38;;;17.17;;
19436;SDS011;9854;50.968;4.168;2023-06-22T11:02:44;20.60;;;18.40;;
19436;SDS011;9854;50.968;4.168;2023-06-22T11:05:09;20.35;;;18.00;;
19436;SDS011;9854;50.968;4.168;2023-06-22T11:07:36;20.25;;;18.05;;
19436;SDS011;9854;50.968;4.168;2023-06-22T11:10:06;23.48;;;18.90;;
19436;SDS011;9854;50.968;4.168;2023-06-22T11:12:32;28.50;;;19.98;;
19436;SDS011;9854;50.968;4.168;2023-06-22T11:14:57;25.20;;;20.02;;
19436;SDS011;9854;50.968;4.168;2023-06-22T11:17:23;36.75;;;20.00;;
19436;SDS011;9854;50.968;4.168;2023-06-22T11:19:49;25.30;;;19.30;;
19436;SDS011;9854;50.968;4.168;2023-06-22T11:22:14;20.48;;;18.15;;
19436;SDS011;9854;50.968;4.168;2023-06-22T11:24:40;20.63;;;18.33;;
19436;SDS011;9854;50.968;4.168;2023-06-22T11:27:06;22.13;;;18.75;;
19436;SDS011;9854;50.968;4.168;2023-06-22T11:29:31;26.90;;;18.45;;
19436;SDS011;9854;50.968;4.168;2023-06-22T11:31:57;23.85;;;19.08;;
19436;SDS011;9854;50.968;4.168;2023-06-22T11:34:23;24.98;;;19.83;;
19436;SDS011;9854;50.968;4.168;2023-06-22T11:36:48;22.48;;;19.92;;
19436;SDS011;9854;50.968;4.168;2023-06-22T11:39:14;24.65;;;21.08;;
19436;SDS011;9854;50.968;4.168;2023-06-22T11:41:40;23.92;;;21.10;;
19436;SDS011;9854;50.968;4.168;2023-06-22T11:44:06;26.67;;;22.67;;
19436;SDS011;9854;50.968;4.168;2023-06-22T11:46:32;28.95;;;23.02;;
19436;SDS011;9854;50.968;4.168;2023-06-22T11:48:58;33.08;;;23.15;;
19436;SDS011;9854;50.968;4.168;2023-06-22T11:51:23;26.02;;;22.30;;
19436;SDS011;9854;50.968;4.168;2023-06-22T11:53:49;26.98;;;21.10;;
19436;SDS011;9854;50.968;4.168;2023-06-22T11:56:15;24.50;;;19.88;;
19436;SDS011;9854;50.968;4.168;2023-06-22T11:58:40;24.20;;;18.30;;
19436;SDS011;9854;50.968;4.168;2023-06-22T12:01:06;23.50;;;19.70;;
19436;SDS011;9854;50.968;4.168;2023-06-22T12:03:31;21.05;;;18.27;;
19436;SDS011;9854;50.968;4.168;2023-06-22T12:05:57;21.15;;;18.40;;
19436;SDS011;9854;50.968;4.168;2023-06-22T12:08:23;30.40;;;20.20;;
19436;SDS011;9854;50.968;4.168;2023-06-22T12:10:49;21.20;;;18.95;;
19436;SDS011;9854;50.968;4.168;2023-06-22T12:13:15;24.13;;;18.80;;
19436;SDS011;9854;50.968;4.168;2023-06-22T12:15:41;25.35;;;19.77;;
19436;SDS011;9854;50.968;4.168;2023-06-22T12:18:09;23.17;;;19.85;;
19436;SDS011;9854;50.968;4.168;2023-06-22T12:20:34;21.95;;;18.80;;
19436;SDS011;9854;50.968;4.168;2023-06-22T12:23:01;23.40;;;19.75;;
19436;SDS011;9854;50.968;4.168;2023-06-22T12:25:26;22.75;;;18.65;;
19436;SDS011;9854;50.968;4.168;2023-06-22T12:27:52;22.00;;;17.52;;
19436;SDS011;9854;50.968;4.168;2023-06-22T12:30:18;21.27;;;19.00;;
19436;SDS011;9854;50.968;4.168;2023-06-22T12:32:44;21.13;;;17.20;;
19436;SDS011;9854;50.968;4.168;2023-06-22T12:35:10;25.17;;;17.75;;
19436;SDS011;9854;50.968;4.168;2023-06-22T12:37:39;25.63;;;18.08;;
19436;SDS011;9854;50.968;4.168;2023-06-22T12:40:06;20.73;;;17.67;;
19436;SDS011;9854;50.968;4.168;2023-06-22T12:42:32;21.25;;;16.80;;
19436;SDS011;9854;50.968;4.168;2023-06-22T12:44:58;23.35;;;18.52;;
19436;SDS011;9854;50.968;4.168;2023-06-22T12:47:23;23.25;;;17.85;;
19436;SDS011;9854;50.968;4.168;2023-06-22T12:49:49;22.27;;;17.52;;
19436;SDS011;9854;50.968;4.168;2023-06-22T12:52:15;20.50;;;18.27;;
19436;SDS011;9854;50.968;4.168;2023-06-22T12:54:40;23.23;;;18.95;;
19436;SDS011;9854;50.968;4.168;2023-06-22T12:57:06;25.98;;;18.55;;
19436;SDS011;9854;50.968;4.168;2023-06-22T12:59:31;25.75;;;20.27;;
19436;SDS011;9854;50.968;4.168;2023-06-22T13:01:57;27.83;;;19.98;;
19436;SDS011;9854;50.968;4.168;2023-06-22T13:04:23;26.17;;;20.92;;
19436;SDS011;9854;50.968;4.168;2023-06-22T13:06:48;27.42;;;21.27;;
19436;SDS011;9854;50.968;4.168;2023-06-22T13:09:14;31.08;;;23.00;;
19436;SDS011;9854;50.968;4.168;2023-06-22T13:11:41;30.88;;;23.30;;
19436;SDS011;9854;50.968;4.168;2023-06-22T13:14:07;33.05;;;23.10;;
19436;SDS011;9854;50.968;4.168;2023-06-22T13:16:33;33.58;;;24.30;;
19436;SDS011;9854;50.968;4.168;2023-06-22T13:18:59;31.73;;;25.38;;
19436;SDS011;9854;50.968;4.168;2023-06-22T13:21:24;32.35;;;24.67;;
19436;SDS011;9854;50.968;4.168;2023-06-22T13:23:50;31.80;;;23.83;;
19436;SDS011;9854;50.968;4.168;2023-06-22T13:26:15;29.98;;;23.63;;
19436;SDS011;9854;50.968;4.168;2023-06-22T13:28:44;30.67;;;23.75;;
19436;SDS011;9854;50.968;4.168;2023-06-22T13:31:09;27.30;;;23.02;;
19436;SDS011;9854;50.968;4.168;2023-06-22T13:33:35;31.55;;;23.98;;
19436;SDS011;9854;50.968;4.168;2023-06-22T13:36:02;28.83;;;24.50;;
19436;SDS011;9854;50.968;4.168;2023-06-22T13:38:28;33.40;;;25.40;;
19436;SDS011;9854;50.968;4.168;2023-06-22T13:40:55;34.80;;;25.88;;
19436;SDS011;9854;50.968;4.168;2023-06-22T13:43:26;33.60;;;26.00;;
19436;SDS011;9854;50.968;4.168;2023-06-22T13:45:52;34.60;;;26.75;;
19436;SDS011;9854;50.968;4.168;2023-06-22T13:48:18;32.08;;;25.50;;
19436;SDS011;9854;50.968;4.168;2023-06-22T13:50:43;39.60;;;27.58;;
19436;SDS011;9854;50.968;4.168;2023-06-22T13:53:09;32.03;;;26.20;;
19436;SDS011;9854;50.968;4.168;2023-06-22T13:55:35;38.35;;;27.02;;
19436;SDS011;9854;50.968;4.168;2023-06-22T13:58:00;31.73;;;26.13;;
19436;SDS011;9854;50.968;4.168;2023-06-22T14:00:26;34.95;;;25.65;;
19436;SDS011;9854;50.968;4.168;2023-06-22T14:02:53;33.28;;;26.02;;
19436;SDS011;9854;50.968;4.168;2023-06-22T14:05:19;31.40;;;25.17;;
19436;SDS011;9854;50.968;4.168;2023-06-22T14:07:45;39.67;;;28.52;;
19436;SDS011;9854;50.968;4.168;2023-06-22T14:10:10;30.00;;;25.73;;
19436;SDS011;9854;50.968;4.168;2023-06-22T14:12:36;36.63;;;26.73;;
19436;SDS011;9854;50.968;4.168;2023-06-22T14:15:01;39.05;;;27.25;;
19436;SDS011;9854;50.968;4.168;2023-06-22T14:17:27;34.60;;;27.23;;
19436;SDS011;9854;50.968;4.168;2023-06-22T14:19:53;34.72;;;26.23;;
19436;SDS011;9854;50.968;4.168;2023-06-22T14:22:19;33.30;;;25.98;;
19436;SDS011;9854;50.968;4.168;2023-06-22T14:24:45;32.72;;;27.38;;
19436;SDS011;9854;50.968;4.168;2023-06-22T14:27:12;38.70;;;26.50;;
19436;SDS011;9854;50.968;4.168;2023-06-22T14:29:38;36.80;;;28.10;;
19436;SDS011;9854;50.968;4.168;2023-06-22T14:32:04;32.72;;;27.67;;
19436;SDS011;9854;50.968;4.168;2023-06-22T14:34:31;34.03;;;28.15;;
19436;SDS011;9854;50.968;4.168;2023-06-22T14:36:57;34.95;;;28.08;;
19436;SDS011;9854;50.968;4.168;2023-06-22T14:39:23;40.53;;;28.55;;
19436;SDS011;9854;50.968;4.168;2023-06-22T14:41:48;37.30;;;28.33;;
19436;SDS011;9854;50.968;4.168;2023-06-22T14:44:14;38.05;;;29.35;;
19436;SDS011;9854;50.968;4.168;2023-06-22T14:46:40;44.15;;;31.05;;